createdAt,value
2022-11-16T00:01:45.392Z,1.38
2022-11-16T00:04:12.447Z,1.30
2022-11-16T00:06:40.006Z,1.42
2022-11-16T00:09:22.590Z,1.27
2022-11-16T00:12:01.375Z,1.50
2022-11-16T00:14:31.159Z,1.50
2022-11-16T00:16:58.716Z,1.52
2022-11-16T00:19:26.460Z,1.70
2022-11-16T00:21:54.170Z,1.70
2022-11-16T00:24:22.464Z,1.50
2022-11-16T00:26:50.048Z,1.35
2022-11-16T00:29:19.474Z,1.48
2022-11-16T00:31:47.242Z,1.70
2022-11-16T00:34:14.839Z,1.50
2022-11-16T00:36:42.019Z,1.73
2022-11-16T00:39:11.788Z,1.60
2022-11-16T00:41:38.848Z,1.50
2022-11-16T00:44:05.825Z,1.73
2022-11-16T00:46:32.793Z,2.00
2022-11-16T00:48:59.722Z,2.05
2022-11-16T00:51:26.997Z,1.48
2022-11-16T00:53:53.876Z,1.65
2022-11-16T00:56:21.774Z,1.55
2022-11-16T00:58:48.731Z,2.10
2022-11-16T01:01:16.377Z,1.63
2022-11-16T01:03:43.300Z,1.83
2022-11-16T01:06:12.477Z,1.80
2022-11-16T01:08:40.622Z,1.92
2022-11-16T01:11:27.332Z,1.67
2022-11-16T01:13:55.228Z,1.52
2022-11-16T01:16:23.457Z,1.55
2022-11-16T01:18:52.444Z,1.63
2022-11-16T01:21:20.098Z,2.10
2022-11-16T01:23:47.074Z,2.00
2022-11-16T01:26:14.187Z,1.55
2022-11-16T01:28:42.644Z,1.40
2022-11-16T01:31:11.371Z,2.05
2022-11-16T01:33:38.726Z,1.85
2022-11-16T01:36:14.257Z,1.90
2022-11-16T01:38:45.665Z,1.83
2022-11-16T01:41:16.922Z,1.73
2022-11-16T01:43:58.152Z,1.95
2022-11-16T01:46:30.275Z,1.73
2022-11-16T01:49:05.319Z,1.80
2022-11-16T01:51:33.327Z,1.67
2022-11-16T01:54:02.602Z,1.92
2022-11-16T01:56:32.340Z,2.30
2022-11-16T01:59:09.440Z,2.30
2022-11-16T02:04:04.883Z,1.90
2022-11-16T02:06:39.086Z,2.05
2022-11-16T02:09:40.471Z,1.73
2022-11-16T02:12:41.890Z,2.00
2022-11-16T02:15:30.056Z,2.00
2022-11-16T02:18:31.546Z,2.00
2022-11-16T02:21:21.263Z,1.75
2022-11-16T02:24:06.482Z,2.30
2022-11-16T02:26:45.572Z,2.03
2022-11-16T02:29:12.397Z,1.77
2022-11-16T02:31:46.973Z,2.20
2022-11-16T02:34:17.921Z,2.13
2022-11-16T02:36:47.339Z,2.00
2022-11-16T02:39:18.658Z,2.60
2022-11-16T02:41:48.703Z,2.22
2022-11-16T02:44:24.679Z,2.15
2022-11-16T02:46:57.867Z,1.88
2022-11-16T02:49:27.006Z,2.17
2022-11-16T02:51:55.367Z,2.55
2022-11-16T02:54:24.540Z,2.35
2022-11-16T02:57:02.815Z,2.90
2022-11-16T02:59:41.564Z,2.25
2022-11-16T03:02:26.837Z,2.20
2022-11-16T03:05:33.612Z,2.13
2022-11-16T03:08:13.715Z,2.60
2022-11-16T03:11:02.646Z,1.85
2022-11-16T03:13:33.446Z,1.95
2022-11-16T03:16:02.987Z,1.48
2022-11-16T03:18:31.781Z,1.60
2022-11-16T03:21:19.367Z,1.38
2022-11-16T03:23:46.746Z,1.70
2022-11-16T03:28:51.691Z,1.60
2022-11-16T03:31:27.867Z,1.30
2022-11-16T03:33:58.243Z,1.10
2022-11-16T03:36:33.926Z,1.63
2022-11-16T03:39:20.370Z,1.55
2022-11-16T03:41:48.549Z,1.40
2022-11-16T03:44:17.306Z,2.00
2022-11-16T03:46:46.631Z,1.80
2022-11-16T03:49:14.740Z,1.70
2022-11-16T03:51:42.721Z,2.08
2022-11-16T03:56:36.731Z,2.03
2022-11-16T03:59:03.707Z,1.63
2022-11-16T04:01:31.662Z,1.40
2022-11-16T04:03:59.948Z,1.90
2022-11-16T04:06:45.573Z,1.08
2022-11-16T04:09:31.286Z,1.42
2022-11-16T04:12:17.172Z,1.20
2022-11-16T04:15:03.214Z,1.48
2022-11-16T04:17:51.378Z,1.42
2022-11-16T04:20:36.779Z,1.30
2022-11-16T04:23:26.993Z,1.10
2022-11-16T04:25:54.113Z,1.40
2022-11-16T04:28:27.068Z,1.35
2022-11-16T04:31:21.832Z,1.27
2022-11-16T04:34:14.266Z,0.98
2022-11-16T04:37:04.724Z,1.05
2022-11-16T04:39:31.954Z,1.02
2022-11-16T04:42:14.544Z,1.48
2022-11-16T04:45:01.613Z,0.90
2022-11-16T04:47:34.538Z,1.27
2022-11-16T04:50:02.596Z,1.27
2022-11-16T04:52:29.514Z,1.10
2022-11-16T04:54:56.535Z,1.27
2022-11-16T04:57:23.784Z,1.17
2022-11-16T04:59:50.968Z,1.15
2022-11-16T05:02:17.909Z,1.20
2022-11-16T05:04:57.098Z,1.10
2022-11-16T05:07:25.362Z,1.08
2022-11-16T05:09:57.540Z,0.90
2022-11-16T05:12:27.974Z,0.88
2022-11-16T05:14:58.863Z,1.38
2022-11-16T05:17:28.850Z,1.00
2022-11-16T05:20:16.624Z,1.00
2022-11-16T05:22:55.001Z,0.95
2022-11-16T05:25:23.580Z,1.05
2022-11-16T05:27:50.876Z,0.90
2022-11-16T05:30:18.095Z,1.25
2022-11-16T05:32:45.101Z,1.20
2022-11-16T05:35:13.611Z,1.17
2022-11-16T05:37:40.501Z,1.00
2022-11-16T05:40:07.979Z,0.70
2022-11-16T05:42:41.923Z,1.10
2022-11-16T05:45:09.374Z,1.30
2022-11-16T05:47:36.327Z,1.10
2022-11-16T05:50:03.997Z,1.23
2022-11-16T05:52:35.992Z,1.10
2022-11-16T05:55:07.394Z,0.85
2022-11-16T05:57:40.724Z,0.80
2022-11-16T06:00:08.583Z,1.02
2022-11-16T06:02:42.191Z,0.98
2022-11-16T06:05:16.601Z,0.90
2022-11-16T06:07:43.641Z,1.00
2022-11-16T06:10:10.871Z,0.90
2022-11-16T06:12:38.821Z,0.95
2022-11-16T06:15:06.436Z,0.98
2022-11-16T06:20:01.345Z,0.73
2022-11-16T06:22:28.240Z,0.88
2022-11-16T06:24:55.283Z,0.80
2022-11-16T06:27:22.274Z,0.68
2022-11-16T06:29:49.933Z,0.70
2022-11-16T06:32:16.882Z,0.98
2022-11-16T06:34:43.754Z,1.00
2022-11-16T06:37:11.898Z,0.60
2022-11-16T06:39:38.842Z,0.70
2022-11-16T06:42:05.767Z,0.75
2022-11-16T06:44:32.747Z,0.65
2022-11-16T06:47:02.929Z,0.70
2022-11-16T06:52:00.923Z,0.85
2022-11-16T06:54:27.874Z,0.95
2022-11-16T06:56:55.034Z,0.70
2022-11-16T06:59:21.979Z,0.60
2022-11-16T07:01:49.741Z,0.88
2022-11-16T07:04:16.973Z,0.70
2022-11-16T07:06:50.185Z,0.80
2022-11-16T07:09:18.352Z,0.63
2022-11-16T07:11:45.341Z,0.70
2022-11-16T07:14:14.185Z,0.70
2022-11-16T07:16:41.976Z,0.90
2022-11-16T07:19:10.275Z,1.20
2022-11-16T07:21:38.497Z,0.80
2022-11-16T07:24:09.406Z,0.90
2022-11-16T07:26:36.348Z,0.90
2022-11-16T07:29:08.992Z,1.00
2022-11-16T07:31:40.254Z,1.17
2022-11-16T07:34:23.513Z,1.05
2022-11-16T07:37:00.911Z,1.38
2022-11-16T07:39:27.851Z,1.10
2022-11-16T07:44:44.682Z,1.25
2022-11-16T07:47:11.567Z,1.20
2022-11-16T07:49:38.564Z,1.33
2022-11-16T07:52:15.555Z,1.63
2022-11-16T07:55:01.663Z,1.48
2022-11-16T07:57:31.046Z,1.30
2022-11-16T08:00:01.299Z,1.38
2022-11-16T08:02:40.565Z,1.20
2022-11-16T08:05:10.780Z,1.30
2022-11-16T08:07:39.259Z,1.40
2022-11-16T08:10:15.158Z,1.42
2022-11-16T08:12:42.173Z,2.00
2022-11-16T08:15:09.570Z,1.45
2022-11-16T08:17:36.411Z,1.35
2022-11-16T08:20:05.808Z,1.48
2022-11-16T08:24:59.580Z,1.48
2022-11-16T08:27:26.732Z,1.55
2022-11-16T08:29:56.127Z,1.38
2022-11-16T08:32:23.077Z,1.70
2022-11-16T08:34:50.155Z,1.23
2022-11-16T08:37:17.131Z,1.23
2022-11-16T08:39:45.220Z,1.45
2022-11-16T08:42:12.238Z,1.15
2022-11-16T08:44:42.797Z,1.63
2022-11-16T08:47:13.609Z,1.52
2022-11-16T08:49:49.654Z,1.23
2022-11-16T08:52:18.486Z,2.00
2022-11-16T08:54:45.529Z,1.10
2022-11-16T08:57:12.463Z,1.33
2022-11-16T08:59:41.636Z,1.25
2022-11-16T09:02:12.689Z,1.20
2022-11-16T09:04:39.818Z,0.95
2022-11-16T09:07:06.789Z,1.73
2022-11-16T09:09:33.743Z,1.30
2022-11-16T09:12:00.692Z,1.38
2022-11-16T09:14:28.958Z,1.40
2022-11-16T09:16:55.888Z,1.63
2022-11-16T09:19:22.799Z,1.17
2022-11-16T09:21:50.368Z,1.33
2022-11-16T09:24:17.378Z,1.15
2022-11-16T09:26:44.323Z,1.20
2022-11-16T09:29:13.193Z,0.98
2022-11-16T09:31:40.853Z,1.20
2022-11-16T09:34:08.121Z,1.60
2022-11-16T09:39:29.553Z,1.08
2022-11-16T09:42:12.039Z,1.80
2022-11-16T09:44:38.871Z,1.63
2022-11-16T09:47:14.422Z,1.20
2022-11-16T09:49:47.219Z,1.00
2022-11-16T09:52:33.007Z,1.13
2022-11-16T09:55:03.683Z,0.95
2022-11-16T09:57:36.123Z,1.70
2022-11-16T10:00:13.644Z,0.88
2022-11-16T10:02:48.379Z,0.80
2022-11-16T10:05:36.381Z,1.25
2022-11-16T10:08:40.982Z,1.08
2022-11-16T10:11:19.636Z,1.10
2022-11-16T10:14:23.171Z,1.08
2022-11-16T10:17:14.529Z,0.90
2022-11-16T10:20:04.904Z,1.55
2022-11-16T10:22:38.631Z,1.40
2022-11-16T10:25:33.073Z,0.90
2022-11-16T10:28:14.757Z,0.90
2022-11-16T10:30:57.304Z,1.20
2022-11-16T10:33:26.754Z,1.05
2022-11-16T10:35:54.124Z,1.23
2022-11-16T10:38:25.197Z,0.90
2022-11-16T10:41:01.088Z,1.40
2022-11-16T10:43:31.335Z,1.38
2022-11-16T10:46:16.538Z,0.90
2022-11-16T10:49:02.290Z,1.15
2022-11-16T10:51:29.304Z,1.10
2022-11-16T10:53:57.118Z,0.90
2022-11-16T10:56:28.124Z,1.10
2022-11-16T10:58:59.233Z,1.00
2022-11-16T11:01:34.003Z,1.08
2022-11-16T11:04:23.563Z,1.23
2022-11-16T11:06:55.856Z,1.13
2022-11-16T11:09:25.567Z,0.93
2022-11-16T11:12:23.627Z,1.15
2022-11-16T11:15:11.522Z,0.93
2022-11-16T11:17:42.071Z,1.00
2022-11-16T11:20:15.243Z,0.90
2022-11-16T11:22:58.160Z,0.80
2022-11-16T11:25:32.342Z,1.20
2022-11-16T11:28:24.478Z,1.05
2022-11-16T11:31:26.005Z,0.93
2022-11-16T11:34:17.687Z,0.88
2022-11-16T11:36:59.696Z,0.98
2022-11-16T11:39:33.233Z,1.08
2022-11-16T11:42:13.885Z,0.88
2022-11-16T11:44:44.743Z,1.25
2022-11-16T11:47:55.609Z,1.13
2022-11-16T11:50:22.378Z,1.23
2022-11-16T11:52:59.254Z,0.90
2022-11-16T11:55:26.432Z,1.25
2022-11-16T11:57:53.928Z,1.10
2022-11-16T12:00:21.352Z,0.90
2022-11-16T12:08:30.043Z,1.05
2022-11-16T12:11:26.854Z,1.20
2022-11-16T12:16:36.756Z,0.98
2022-11-16T12:19:17.907Z,0.90
2022-11-16T12:22:09.860Z,1.77
2022-11-16T12:24:52.516Z,0.98
2022-11-16T12:27:30.606Z,0.90
2022-11-16T12:30:09.387Z,1.23
2022-11-16T12:33:00.660Z,1.08
2022-11-16T12:35:38.230Z,0.85
2022-11-16T12:38:26.528Z,0.90
2022-11-16T12:41:08.308Z,0.93
2022-11-16T12:43:45.102Z,1.58
2022-11-16T12:46:40.373Z,0.90
2022-11-16T12:49:43.969Z,1.30
2022-11-16T12:52:16.871Z,0.70
2022-11-16T12:55:24.150Z,0.80
2022-11-16T12:58:03.722Z,1.10
2022-11-16T13:00:54.377Z,1.00
2022-11-16T13:03:35.456Z,1.00
2022-11-16T13:06:08.459Z,1.08
2022-11-16T13:09:06.153Z,0.80
2022-11-16T13:11:39.657Z,0.80
2022-11-16T13:14:35.168Z,1.10
2022-11-16T13:17:04.095Z,1.17
2022-11-16T13:19:32.099Z,0.93
2022-11-16T13:22:07.495Z,0.60
2022-11-16T13:24:53.263Z,0.80
2022-11-16T13:27:34.762Z,0.82
2022-11-16T13:30:23.029Z,1.00
2022-11-16T13:32:55.956Z,0.80
2022-11-16T13:35:23.941Z,1.05
2022-11-16T13:37:52.137Z,0.88
2022-11-16T13:40:33.410Z,0.77
2022-11-16T13:43:12.018Z,1.00
2022-11-16T13:45:54.742Z,0.80
2022-11-16T13:48:30.831Z,0.82
2022-11-16T13:51:03.961Z,1.05
2022-11-16T13:54:37.901Z,0.82
2022-11-16T13:56:28.974Z,0.70
2022-11-16T13:58:58.253Z,0.65
2022-11-16T14:01:26.552Z,0.93
2022-11-16T14:04:32.030Z,0.70
2022-11-16T14:07:00.190Z,1.15
2022-11-16T14:09:44.890Z,0.73
2022-11-16T14:12:48.890Z,0.98
2022-11-16T14:15:21.004Z,0.85
2022-11-16T14:17:59.661Z,0.85
2022-11-16T14:20:30.842Z,0.70
2022-11-16T14:23:22.387Z,0.95
2022-11-16T14:26:13.644Z,0.70
2022-11-16T14:28:58.860Z,1.08
2022-11-16T14:31:29.616Z,0.82
2022-11-16T14:33:59.405Z,1.10
2022-11-16T14:36:44.284Z,1.00
2022-11-16T14:39:23.665Z,0.90
2022-11-16T14:41:51.095Z,1.08
2022-11-16T14:46:46.733Z,0.98
2022-11-16T14:49:16.747Z,0.90
2022-11-16T14:51:51.300Z,1.10
2022-11-16T14:54:30.095Z,1.15
2022-11-16T14:57:02.016Z,0.98
2022-11-16T14:59:30.217Z,0.90
2022-11-16T15:02:00.247Z,1.13
2022-11-16T15:04:27.629Z,0.70
2022-11-16T15:07:05.288Z,0.98
2022-11-16T15:09:39.309Z,0.77
2022-11-16T15:12:32.716Z,0.60
2022-11-16T15:15:07.648Z,1.00
2022-11-16T15:17:35.278Z,1.38
2022-11-16T15:20:14.585Z,0.80
2022-11-16T15:22:45.231Z,0.95
2022-11-16T15:25:26.428Z,0.68
2022-11-16T15:27:54.911Z,0.80
2022-11-16T15:30:27.925Z,1.33
2022-11-16T15:32:55.134Z,1.17
2022-11-16T15:35:25.010Z,0.80
2022-11-16T15:38:27.099Z,1.10
2022-11-16T15:41:02.839Z,1.00
2022-11-16T15:43:49.673Z,1.50
2022-11-16T15:46:24.853Z,1.02
2022-11-16T15:48:52.931Z,0.93
2022-11-16T15:51:24.305Z,0.95
2022-11-16T15:53:53.524Z,1.15
2022-11-16T15:56:27.897Z,1.08
2022-11-16T15:59:01.253Z,1.02
2022-11-16T16:01:31.073Z,0.73
2022-11-16T16:04:06.152Z,0.70
2022-11-16T16:06:47.831Z,1.02
2022-11-16T16:09:23.340Z,1.00
2022-11-16T16:11:50.827Z,1.13
2022-11-16T16:17:00.451Z,1.05
2022-11-16T16:19:30.032Z,1.10
2022-11-16T16:21:59.274Z,0.90
2022-11-16T16:24:41.467Z,0.95
2022-11-16T16:27:17.531Z,1.35
2022-11-16T16:29:46.275Z,1.55
2022-11-16T16:32:16.077Z,1.25
2022-11-16T16:34:43.111Z,1.10
2022-11-16T16:37:15.486Z,1.25
2022-11-16T16:39:42.746Z,1.17
2022-11-16T16:42:12.719Z,1.25
2022-11-16T16:44:40.704Z,1.20
2022-11-16T16:47:08.144Z,1.10
2022-11-16T16:52:02.666Z,1.50
2022-11-16T16:54:29.721Z,1.10
2022-11-16T16:56:57.379Z,1.38
2022-11-16T16:59:24.930Z,1.17
2022-11-16T17:04:18.772Z,1.40
2022-11-16T17:06:46.700Z,1.33
2022-11-16T17:09:14.064Z,1.10
2022-11-16T17:11:40.980Z,1.38
2022-11-16T17:14:08.171Z,1.33
2022-11-16T17:16:35.701Z,1.38
2022-11-16T17:21:31.007Z,1.67
2022-11-16T17:23:58.151Z,1.67
2022-11-16T17:26:29.087Z,1.52
2022-11-16T17:28:57.346Z,1.48
2022-11-16T17:31:25.746Z,1.48
2022-11-16T17:33:52.867Z,1.70
2022-11-16T17:36:20.622Z,1.42
2022-11-16T17:38:47.577Z,1.35
2022-11-16T17:41:25.485Z,1.30
2022-11-16T17:43:53.488Z,1.30
2022-11-16T17:46:23.380Z,1.58
2022-11-16T17:48:50.771Z,1.30
2022-11-16T17:51:20.123Z,1.60
2022-11-16T17:53:49.090Z,1.27
2022-11-16T17:56:18.642Z,1.23
2022-11-16T17:58:45.611Z,1.48
2022-11-16T18:01:13.713Z,1.85
2022-11-16T18:03:40.934Z,1.20
2022-11-16T18:06:13.865Z,1.30
2022-11-16T18:08:41.822Z,1.60
2022-11-16T18:11:11.667Z,1.30
2022-11-16T18:13:39.256Z,1.02
2022-11-16T18:16:07.078Z,0.90
2022-11-16T18:18:34.234Z,1.63
2022-11-16T18:21:01.889Z,1.48
2022-11-16T18:23:29.134Z,1.40
2022-11-16T18:25:56.300Z,1.63
2022-11-16T18:28:23.308Z,1.88
2022-11-16T18:30:50.661Z,1.30
2022-11-16T18:33:18.458Z,1.33
2022-11-16T18:35:45.360Z,1.48
2022-11-16T18:38:13.066Z,1.52
2022-11-16T18:40:40.391Z,2.10
2022-11-16T18:43:12.422Z,1.40
2022-11-16T18:45:39.338Z,1.67
2022-11-16T18:48:06.966Z,2.08
2022-11-16T18:50:33.867Z,1.25
2022-11-16T18:53:00.776Z,1.25
2022-11-16T18:55:27.676Z,1.50
2022-11-16T18:57:54.566Z,1.25
2022-11-16T19:00:21.697Z,1.23
2022-11-16T19:02:48.686Z,1.42
2022-11-16T19:05:15.762Z,1.50
2022-11-16T19:07:42.712Z,1.42
2022-11-16T19:10:10.041Z,1.95
2022-11-16T19:12:36.919Z,1.52
2022-11-16T19:15:04.213Z,1.63
2022-11-16T19:17:31.185Z,2.45
2022-11-16T19:19:58.100Z,1.75
2022-11-16T19:22:24.985Z,1.45
2022-11-16T19:24:52.004Z,1.58
2022-11-16T19:27:18.968Z,2.13
2022-11-16T19:29:45.940Z,1.80
2022-11-16T19:32:12.946Z,1.63
2022-11-16T19:34:39.960Z,1.75
2022-11-16T19:37:06.972Z,1.40
2022-11-16T19:39:34.108Z,1.90
2022-11-16T19:42:01.043Z,1.60
2022-11-16T19:44:28.056Z,2.00
2022-11-16T19:46:56.835Z,1.58
2022-11-16T19:49:24.272Z,1.73
2022-11-16T19:51:51.806Z,1.38
2022-11-16T19:56:49.347Z,1.58
2022-11-16T19:59:19.044Z,2.15
2022-11-16T20:01:46.110Z,1.60
2022-11-16T20:04:14.184Z,1.77
2022-11-16T20:06:41.236Z,1.55
2022-11-16T20:09:11.317Z,1.63
2022-11-16T20:11:40.503Z,1.60
2022-11-16T20:14:10.254Z,1.65
2022-11-16T20:16:42.178Z,1.60
2022-11-16T20:19:10.198Z,1.70
2022-11-16T20:21:42.765Z,1.70
2022-11-16T20:24:12.944Z,1.48
2022-11-16T20:26:45.931Z,1.40
2022-11-16T20:29:14.365Z,1.60
2022-11-16T20:31:42.999Z,1.60
2022-11-16T20:34:14.144Z,1.75
2022-11-16T20:36:43.616Z,1.55
2022-11-16T20:39:15.714Z,2.03
2022-11-16T20:41:44.017Z,1.42
2022-11-16T20:44:18.208Z,1.67
2022-11-16T20:46:45.472Z,1.40
2022-11-16T20:49:13.068Z,1.63
2022-11-16T20:56:34.341Z,1.65
2022-11-16T20:59:01.617Z,1.85
2022-11-16T21:01:31.308Z,1.30
2022-11-16T21:04:00.349Z,1.98
2022-11-16T21:06:27.897Z,1.30
2022-11-16T21:14:08.729Z,1.80
2022-11-16T21:16:36.249Z,1.75
2022-11-16T21:19:03.363Z,1.42
2022-11-16T21:21:30.733Z,1.23
2022-11-16T21:23:57.656Z,1.90
2022-11-16T21:26:28.915Z,1.25
2022-11-16T21:28:56.733Z,1.30
2022-11-16T21:31:26.654Z,1.40
2022-11-16T21:33:54.510Z,1.63
2022-11-16T21:36:24.292Z,1.52
2022-11-16T21:38:52.040Z,1.27
2022-11-16T21:41:21.630Z,1.67
2022-11-16T21:43:48.830Z,1.15
2022-11-16T21:46:24.791Z,1.30
2022-11-16T21:48:53.747Z,1.38
2022-11-16T21:51:22.701Z,1.80
2022-11-16T21:53:49.597Z,1.25
2022-11-16T21:56:20.699Z,1.02
2022-11-16T21:58:49.884Z,1.70
2022-11-16T22:01:16.948Z,1.27
2022-11-16T22:03:44.712Z,1.33
2022-11-16T22:06:33.024Z,1.48
2022-11-16T22:09:00.359Z,1.67
2022-11-16T22:11:27.392Z,1.30
2022-11-16T22:13:54.348Z,1.45
2022-11-16T22:16:23.257Z,1.10
2022-11-16T22:18:50.914Z,1.27
2022-11-16T22:23:44.778Z,1.00
2022-11-16T22:26:13.186Z,1.80
2022-11-16T22:28:40.102Z,1.50
2022-11-16T22:31:11.071Z,1.30
2022-11-16T22:33:38.620Z,1.40
2022-11-16T22:36:09.100Z,1.42
2022-11-16T22:38:36.396Z,1.45
2022-11-16T22:41:04.101Z,1.60
2022-11-16T22:43:31.583Z,1.42
2022-11-16T22:48:33.575Z,1.73
2022-11-16T22:51:23.633Z,2.03
2022-11-16T22:53:58.688Z,1.15
2022-11-16T22:56:26.442Z,1.40
2022-11-16T22:58:53.783Z,1.42
2022-11-16T23:01:21.401Z,1.80
2022-11-16T23:03:48.728Z,2.65
2022-11-16T23:08:42.691Z,2.45
2022-11-16T23:11:34.257Z,2.38
2022-11-16T23:14:20.691Z,2.17
2022-11-16T23:16:47.938Z,1.65
2022-11-16T23:19:35.454Z,1.23
2022-11-16T23:22:21.475Z,1.60
2022-11-16T23:25:06.676Z,2.88
2022-11-16T23:27:54.908Z,2.25
2022-11-16T23:30:22.826Z,1.25
2022-11-16T23:32:49.782Z,1.50
2022-11-16T23:35:17.121Z,1.38
2022-11-16T23:38:10.110Z,2.05
2022-11-16T23:40:39.179Z,2.00
2022-11-16T23:43:28.606Z,1.45
2022-11-16T23:45:55.574Z,1.33
2022-11-16T23:48:22.407Z,1.27
2022-11-16T23:50:49.239Z,1.35
2022-11-16T23:53:16.127Z,1.17
2022-11-16T23:55:42.973Z,1.40
2022-11-16T23:58:13.518Z,1.30
